Time;durP1;ratioP1;P1;durP2;ratioP2;P2;SDS_P1;SDS_P2;PMS_P1;PMS_P2;Temp;Humidity;BMP_temperature;BMP_pressure;BME280_temperature;BME280_humidity;BME280_pressure;Samples;Min_cycle;Max_cycle;Signal;HPM_P1;HPM_P2
2023/11/09 00:02:01;;;;;;;1.10;1.10;;;;;;;-0.07;95.16;98125.97;5036161;28;20774;-76
2023/11/09 00:04:27;;;;;;;1.10;1.10;;;;;;;-0.18;95.46;98122.69;5037374;28;20038;-76
2023/11/09 00:06:52;;;;;;;1.00;1.00;;;;;;;-0.31;95.15;98118.41;5037067;28;20045;-76
2023/11/09 00:09:17;;;;;;;1.00;1.00;;;;;;;-0.46;95.84;98114.84;5037676;28;20041;-75
2023/11/09 00:11:46;;;;;;;1.00;1.00;;;;;;;-0.42;95.09;98114.25;5036027;28;20115;-75
2023/11/09 00:14:16;;;;;;;1.10;1.10;;;;;;;-0.38;95.71;98116.25;5037086;28;20813;-76
2023/11/09 00:16:42;;;;;;;1.00;1.00;;;;;;;-0.54;95.44;98109.13;5051853;28;20029;-75
2023/11/09 00:19:08;;;;;;;1.20;1.20;;;;;;;-0.66;95.36;98108.38;5033327;28;20044;-76
2023/11/09 00:21:33;;;;;;;1.00;1.00;;;;;;;-0.49;95.67;98100.66;5037500;28;20044;-75
2023/11/09 00:23:59;;;;;;;1.00;1.00;;;;;;;-0.48;95.99;98092.88;5036104;28;20048;-76
2023/11/09 00:26:24;;;;;;;1.00;1.00;;;;;;;-0.31;95.81;98094.81;5034859;28;20807;-76
2023/11/09 00:28:50;;;;;;;1.00;1.00;;;;;;;-0.42;95.58;98088.03;5049453;28;20049;-75
2023/11/09 00:31:18;;;;;;;1.00;1.00;;;;;;;-0.63;95.44;98091.94;5034820;28;20045;-76
2023/11/09 00:33:44;;;;;;;1.10;1.10;;;;;;;-0.51;95.95;98090.09;5048185;28;20475;-75
2023/11/09 00:36:09;;;;;;;1.10;1.10;;;;;;;-0.53;95.80;98092.63;5035717;28;20045;-77
2023/11/09 00:38:35;;;;;;;1.02;1.02;;;;;;;-0.50;95.88;98091.00;5036312;28;20093;-75
2023/11/09 00:41:02;;;;;;;1.10;1.10;;;;;;;-0.34;95.66;98083.25;5038035;28;20048;-76
2023/11/09 00:43:28;;;;;;;1.00;1.00;;;;;;;-0.20;95.95;98081.47;5036770;28;20454;-76
2023/11/09 00:45:54;;;;;;;1.05;1.05;;;;;;;-0.21;95.76;98079.66;5036469;28;20056;-76
2023/11/09 00:48:19;;;;;;;1.00;1.00;;;;;;;-0.44;95.94;98076.53;5041937;28;20037;-77
2023/11/09 00:50:44;;;;;;;1.10;1.10;;;;;;;-0.39;96.09;98084.69;5032761;28;20171;-76
2023/11/09 00:53:10;;;;;;;1.08;1.08;;;;;;;-0.53;95.76;98068.13;5038399;28;20399;-77
2023/11/09 00:55:35;;;;;;;1.10;1.10;;;;;;;-0.31;96.07;98080.81;5034883;28;20115;-77
2023/11/09 00:58:01;;;;;;;1.05;1.05;;;;;;;-0.30;95.54;98066.91;5034551;28;20382;-77
2023/11/09 01:00:27;;;;;;;1.00;1.00;;;;;;;-0.46;95.50;98058.94;5021088;28;20040;-79
2023/11/09 01:02:54;;;;;;;1.10;1.10;;;;;;;-0.40;95.61;98059.28;5033660;28;20033;-77
2023/11/09 01:05:19;;;;;;;1.10;1.10;;;;;;;-0.37;95.93;98065.63;5034394;28;20041;-76
2023/11/09 01:07:46;;;;;;;1.00;1.00;;;;;;;-0.60;95.53;98056.38;5050532;28;20079;-77
2023/11/09 01:10:12;;;;;;;1.10;1.10;;;;;;;-0.48;95.65;98055.28;5040614;28;20029;-76
2023/11/09 01:12:37;;;;;;;1.00;1.00;;;;;;;-0.48;95.50;98050.06;5039247;28;20090;-77
2023/11/09 01:15:04;;;;;;;1.08;1.08;;;;;;;-0.38;95.69;98053.34;5023242;28;20086;-77
2023/11/09 01:17:29;;;;;;;1.10;1.10;;;;;;;-0.45;95.76;98045.00;5036371;28;20068;-77
2023/11/09 01:19:55;;;;;;;1.00;1.00;;;;;;;-0.14;95.89;98047.78;5035087;28;20037;-78
2023/11/09 01:22:20;;;;;;;1.10;1.10;;;;;;;-0.29;95.79;98039.88;5031680;28;20116;-76
2023/11/09 01:24:47;;;;;;;1.10;1.10;;;;;;;-0.28;95.69;98029.50;5048912;28;20033;-76
2023/11/09 01:27:13;;;;;;;1.10;1.10;;;;;;;-0.42;95.60;98040.88;5038547;28;20037;-76
2023/11/09 01:29:39;;;;;;;1.10;1.10;;;;;;;-0.33;95.53;98035.28;5035122;28;20094;-79
2023/11/09 01:32:04;;;;;;;1.10;1.10;;;;;;;-0.46;95.43;98041.50;5032609;28;20172;-77
2023/11/09 01:34:31;;;;;;;1.00;1.00;;;;;;;-0.48;95.56;98035.22;5019483;28;20039;-77
2023/11/09 01:36:57;;;;;;;1.00;1.00;;;;;;;-0.36;95.73;98033.38;5032724;28;20041;-77
2023/11/09 01:39:23;;;;;;;1.00;1.00;;;;;;;-0.43;95.14;98039.06;5038568;28;20081;-76
2023/11/09 01:41:49;;;;;;;1.10;1.10;;;;;;;-0.38;95.64;98024.53;5033848;28;20041;-77
2023/11/09 01:44:15;;;;;;;1.00;1.00;;;;;;;-0.35;95.46;98029.94;5035944;28;20127;-76
2023/11/09 01:46:44;;;;;;;1.00;1.00;;;;;;;-0.32;95.49;98024.88;5035205;28;20098;-78
2023/11/09 01:49:12;;;;;;;1.08;1.08;;;;;;;-0.37;95.64;98015.84;5037114;28;20567;-78
2023/11/09 01:51:39;;;;;;;1.00;1.00;;;;;;;-0.47;95.46;98012.59;5032674;28;20058;-76
2023/11/09 01:54:06;;;;;;;0.90;0.90;;;;;;;-0.36;95.41;98011.50;5029696;28;20066;-76
2023/11/09 01:56:32;;;;;;;1.00;1.00;;;;;;;-0.35;95.28;98006.34;5049097;28;20491;-77
2023/11/09 01:59:03;;;;;;;1.10;1.10;;;;;;;-0.41;95.41;98005.97;5039048;28;20168;-77
2023/11/09 02:01:31;;;;;;;1.10;1.10;;;;;;;-0.37;95.06;98001.84;5038791;28;20029;-76
2023/11/09 02:03:58;;;;;;;1.10;1.10;;;;;;;-0.27;95.26;97993.72;5041155;28;20462;-77
2023/11/09 02:06:23;;;;;;;1.10;1.10;;;;;;;-0.28;94.99;97992.81;5039081;28;20035;-76
2023/11/09 02:08:49;;;;;;;1.05;1.05;;;;;;;0.07;95.20;97979.94;5041497;28;20037;-77
2023/11/09 02:11:15;;;;;;;1.10;1.10;;;;;;;-0.15;95.01;97983.03;5036830;28;20102;-76
2023/11/09 02:13:41;;;;;;;1.10;1.10;;;;;;;-0.24;94.98;97977.22;5041152;28;20124;-77
2023/11/09 02:16:06;;;;;;;1.10;1.10;;;;;;;-0.28;95.04;97977.06;5038605;28;20160;-77
2023/11/09 02:18:33;;;;;;;1.02;1.02;;;;;;;-0.27;94.95;97975.34;5041819;28;20033;-78
2023/11/09 02:20:59;;;;;;;1.10;1.10;;;;;;;-0.35;94.90;97966.13;5038206;28;20033;-77
2023/11/09 02:23:31;;;;;;;1.10;1.10;;;;;;;-0.24;95.11;97966.75;5038171;28;20049;-77
2023/11/09 02:25:57;;;;;;;1.10;1.10;;;;;;;-0.33;94.84;97961.91;5019311;28;20040;-77
2023/11/09 02:28:22;;;;;;;1.00;1.00;;;;;;;-0.14;94.99;97953.41;5035524;28;20037;-78
2023/11/09 02:30:48;;;;;;;1.00;1.00;;;;;;;-0.34;94.88;97960.06;5039949;28;20037;-77
2023/11/09 02:33:13;;;;;;;1.00;1.00;;;;;;;-0.42;95.01;97957.03;5043335;28;20517;-78
2023/11/09 02:35:40;;;;;;;1.08;1.08;;;;;;;-0.39;95.04;97953.66;5036818;28;20041;-77
2023/11/09 02:38:06;;;;;;;1.10;1.10;;;;;;;-0.39;94.82;97946.69;5041426;28;20392;-79
2023/11/09 02:40:31;;;;;;;1.00;1.00;;;;;;;-0.30;95.12;97946.34;5033163;28;20494;-78
2023/11/09 02:42:57;;;;;;;1.10;1.10;;;;;;;-0.26;94.88;97948.31;5032350;28;20640;-78
2023/11/09 02:45:22;;;;;;;1.05;1.05;;;;;;;-0.14;95.00;97945.53;5038879;28;20119;-77
2023/11/09 02:47:48;;;;;;;1.10;1.10;;;;;;;-0.13;94.99;97932.50;5040179;28;20794;-78
2023/11/09 02:50:14;;;;;;;1.10;1.10;;;;;;;-0.14;94.82;97928.09;5037367;28;20063;-78
2023/11/09 02:52:41;;;;;;;1.10;1.10;;;;;;;-0.24;94.89;97935.31;5041212;28;20917;-77
2023/11/09 02:55:08;;;;;;;1.10;1.10;;;;;;;-0.13;94.76;97927.25;5036568;28;20091;-77
2023/11/09 02:57:34;;;;;;;1.00;1.00;;;;;;;-0.31;95.06;97924.47;5041691;28;20067;-77
2023/11/09 03:00:00;;;;;;;1.10;1.10;;;;;;;-0.37;94.88;97920.59;5020505;28;20069;-78
2023/11/09 03:02:26;;;;;;;1.10;1.10;;;;;;;-0.35;94.90;97916.34;5036649;28;20399;-78
2023/11/09 03:04:52;;;;;;;1.10;1.10;;;;;;;-0.30;94.97;97917.50;5021817;28;20116;-78
2023/11/09 03:07:18;;;;;;;1.00;1.00;;;;;;;-0.34;94.98;97903.31;5035593;28;20398;-78
2023/11/09 03:09:44;;;;;;;1.10;1.10;;;;;;;-0.12;94.91;97901.94;5037488;28;20033;-78
2023/11/09 03:12:10;;;;;;;1.00;1.00;;;;;;;-0.14;95.08;97908.84;5038727;28;20624;-78
2023/11/09 03:14:36;;;;;;;1.10;1.10;;;;;;;-0.25;94.69;97905.56;5020309;28;20140;-78
2023/11/09 03:17:06;;;;;;;1.10;1.10;;;;;;;-0.31;94.99;97898.25;5036975;28;20491;-78
2023/11/09 03:19:32;;;;;;;1.00;1.00;;;;;;;-0.35;94.60;97896.28;5037498;28;20060;-78
2023/11/09 03:21:58;;;;;;;1.08;1.08;;;;;;;-0.23;94.70;97887.34;5036926;28;20152;-78
2023/11/09 03:24:23;;;;;;;1.10;1.10;;;;;;;-0.05;94.77;97886.66;5041527;28;20051;-77
2023/11/09 03:26:49;;;;;;;1.00;1.00;;;;;;;-0.07;94.61;97892.63;5039744;28;20076;-77
2023/11/09 03:29:14;;;;;;;1.10;1.10;;;;;;;-0.03;94.70;97899.84;5036269;28;20116;-78
2023/11/09 03:31:40;;;;;;;1.02;1.02;;;;;;;0.04;94.75;97894.13;5039906;28;20910;-78
2023/11/09 03:34:05;;;;;;;1.10;1.10;;;;;;;-0.07;94.83;97890.91;5048361;28;20084;-78
2023/11/09 03:36:31;;;;;;;1.10;1.10;;;;;;;-0.15;94.82;97900.03;5038531;28;20043;-77
2023/11/09 03:38:56;;;;;;;1.10;1.10;;;;;;;-0.13;94.74;97894.91;5037483;28;20111;-78
2023/11/09 03:41:23;;;;;;;1.10;1.10;;;;;;;-0.14;95.00;97890.47;5051424;28;20116;-77
2023/11/09 03:43:49;;;;;;;1.10;1.10;;;;;;;-0.10;95.36;97884.56;5037541;28;20403;-79
2023/11/09 03:46:14;;;;;;;1.10;1.10;;;;;;;-0.10;94.72;97882.84;5038460;28;20514;-76
2023/11/09 03:48:40;;;;;;;1.00;1.00;;;;;;;-0.17;94.96;97885.94;5035857;28;20462;-77
2023/11/09 03:51:06;;;;;;;1.10;1.10;;;;;;;-0.16;95.29;97881.59;5021381;28;20495;-78
2023/11/09 03:53:32;;;;;;;1.10;1.10;;;;;;;-0.10;95.51;97881.94;5033743;28;20483;-77
2023/11/09 03:55:57;;;;;;;1.10;1.10;;;;;;;-0.16;95.08;97876.38;5034745;28;20615;-77
2023/11/09 03:58:22;;;;;;;1.10;1.10;;;;;;;-0.15;95.26;97870.28;5040130;28;20037;-77
2023/11/09 04:00:48;;;;;;;1.10;1.10;;;;;;;-0.16;95.16;97871.13;5034096;28;20128;-77
2023/11/09 04:03:14;;;;;;;1.10;1.10;;;;;;;-0.36;95.03;97863.03;5035896;28;20041;-79
2023/11/09 04:05:42;;;;;;;1.10;1.10;;;;;;;-0.08;95.54;97856.75;5038631;28;20059;-76
2023/11/09 04:08:08;;;;;;;1.10;1.10;;;;;;;-0.12;94.91;97857.38;5035196;28;20399;-76
2023/11/09 04:10:34;;;;;;;1.10;1.10;;;;;;;-0.05;94.83;97849.03;5035919;28;20037;-79
2023/11/09 04:12:59;;;;;;;1.10;1.10;;;;;;;0.07;94.70;97847.09;5036269;28;20044;-76
2023/11/09 04:15:25;;;;;;;1.10;1.10;;;;;;;-0.01;94.72;97851.91;5036693;28;20044;-79
2023/11/09 04:17:50;;;;;;;1.00;1.00;;;;;;;-0.03;95.00;97842.16;5036930;28;20037;-78
2023/11/09 04:20:16;;;;;;;1.10;1.10;;;;;;;-0.03;94.74;97842.16;5035916;28;20095;-78
2023/11/09 04:22:43;;;;;;;1.08;1.08;;;;;;;-0.02;94.84;97838.72;5048411;28;20044;-78
2023/11/09 04:25:10;;;;;;;1.10;1.10;;;;;;;-0.03;94.56;97842.16;5049849;28;20047;-77
2023/11/09 04:27:37;;;;;;;1.10;1.10;;;;;;;0.09;94.31;97832.34;5037478;28;20435;-77
2023/11/09 04:30:03;;;;;;;1.10;1.10;;;;;;;0.13;94.42;97831.69;5036928;28;20033;-78
2023/11/09 04:32:29;;;;;;;0.80;0.80;;;;;;;0.18;94.15;97829.31;5033902;28;20124;-77
2023/11/09 04:34:55;;;;;;;1.10;1.10;;;;;;;0.28;94.45;97833.34;5034594;28;20120;-77
2023/11/09 04:37:21;;;;;;;1.10;1.10;;;;;;;0.18;94.14;97830.22;5033135;28;20048;-77
2023/11/09 04:39:50;;;;;;;1.10;1.10;;;;;;;0.16;94.12;97824.00;5038107;28;20036;-77
2023/11/09 04:42:19;;;;;;;1.10;1.10;;;;;;;0.33;94.66;97818.75;5035711;28;20087;-77
2023/11/09 04:44:48;;;;;;;1.10;1.10;;;;;;;0.25;94.59;97827.13;5036908;28;20064;-77
2023/11/09 04:47:14;;;;;;;1.00;1.00;;;;;;;0.28;94.69;97822.84;5038170;28;20033;-77
2023/11/09 04:49:46;;;;;;;1.00;1.00;;;;;;;0.11;94.68;97819.31;5034512;28;20111;-77
2023/11/09 04:52:14;;;;;;;1.05;1.05;;;;;;;0.11;94.46;97816.72;5034780;28;20064;-77
2023/11/09 04:54:45;;;;;;;1.10;1.10;;;;;;;0.06;94.43;97820.78;5035374;28;20037;-77
2023/11/09 05:07:52;;;;;;;1.10;1.10;;;;;;;0.25;93.91;97815.72;5034314;28;20084;-75
2023/11/09 05:10:17;;;;;;;1.00;1.00;;;;;;;0.30;94.11;97808.13;5035815;28;20045;-78
2023/11/09 05:12:43;;;;;;;1.10;1.10;;;;;;;0.40;93.85;97806.06;5034804;28;20045;-78
2023/11/09 05:15:10;;;;;;;1.00;1.00;;;;;;;0.25;93.83;97800.91;5036729;28;20041;-76
2023/11/09 05:17:36;;;;;;;1.10;1.10;;;;;;;0.17;93.95;97803.91;5033991;28;20037;-79
2023/11/09 05:20:05;;;;;;;1.10;1.10;;;;;;;0.31;94.20;97787.19;5035161;28;20655;-76
2023/11/09 05:22:30;;;;;;;1.08;1.08;;;;;;;0.24;94.20;97796.47;5034046;28;20043;-76
2023/11/09 05:24:56;;;;;;;0.95;0.95;;;;;;;0.16;94.16;97797.78;5033106;28;20046;-76
2023/11/09 05:27:22;;;;;;;1.10;1.10;;;;;;;0.15;94.03;97790.72;5035373;28;20065;-77
2023/11/09 05:29:48;;;;;;;1.10;1.10;;;;;;;-0.02;94.24;97791.53;5035321;28;20082;-75
2023/11/09 05:32:14;;;;;;;1.10;1.10;;;;;;;0.09;94.13;97784.22;5035442;28;20041;-77
2023/11/09 05:34:39;;;;;;;1.02;1.02;;;;;;;0.14;94.31;97790.63;5034464;28;20068;-77
2023/11/09 05:37:05;;;;;;;1.10;1.10;;;;;;;0.10;94.21;97781.72;5036948;28;20052;-77
2023/11/09 05:39:31;;;;;;;1.02;1.02;;;;;;;0.17;94.42;97781.22;5038435;28;20572;-76
2023/11/09 05:41:59;;;;;;;1.10;1.10;;;;;;;0.23;94.34;97775.38;5034990;28;20044;-77
2023/11/09 05:44:28;;;;;;;1.10;1.10;;;;;;;0.14;94.09;97772.28;5039410;28;20040;-76
2023/11/09 05:46:54;;;;;;;1.10;1.10;;;;;;;0.25;94.32;97768.53;5043097;28;20040;-76
2023/11/09 05:49:21;;;;;;;1.20;1.20;;;;;;;0.22;94.28;97779.72;5036048;28;20037;-76
2023/11/09 05:51:46;;;;;;;1.00;1.00;;;;;;;0.18;94.52;97777.75;5039278;28;20037;-76
2023/11/09 05:54:12;;;;;;;1.10;1.10;;;;;;;0.21;94.38;97782.28;5037840;28;20060;-76
2023/11/09 05:56:37;;;;;;;1.10;1.10;;;;;;;0.19;94.23;97771.72;5037196;28;20060;-77
2023/11/09 05:59:03;;;;;;;1.10;1.10;;;;;;;0.16;94.43;97776.78;5037901;28;20037;-78
2023/11/09 06:01:30;;;;;;;1.10;1.10;;;;;;;0.29;94.38;97777.44;5034950;28;20041;-77
2023/11/09 06:04:03;;;;;;;1.00;1.00;;;;;;;0.34;94.37;97765.50;5041022;28;20037;-77
2023/11/09 06:06:29;;;;;;;1.10;1.10;;;;;;;0.42;93.87;97769.41;5037330;28;20049;-77
2023/11/09 06:08:55;;;;;;;1.10;1.10;;;;;;;0.43;94.25;97776.44;5038652;28;20475;-78
2023/11/09 06:11:21;;;;;;;1.10;1.10;;;;;;;0.51;93.82;97775.13;5036439;28;20300;-77
2023/11/09 06:13:46;;;;;;;1.10;1.10;;;;;;;0.53;93.76;97776.13;5036750;28;20029;-77
2023/11/09 06:16:12;;;;;;;1.00;1.00;;;;;;;0.45;93.92;97770.47;5041158;28;20044;-76
2023/11/09 06:18:37;;;;;;;1.10;1.10;;;;;;;0.49;93.99;97774.16;5036321;28;20064;-77
2023/11/09 06:21:03;;;;;;;1.00;1.00;;;;;;;0.48;93.85;97772.38;5036929;28;20060;-79
2023/11/09 06:23:29;;;;;;;1.10;1.10;;;;;;;0.57;94.11;97767.56;5037468;28;20033;-77
2023/11/09 06:25:58;;;;;;;1.10;1.10;;;;;;;0.58;93.96;97772.03;5035510;28;20638;-77
2023/11/09 06:28:24;;;;;;;1.00;1.00;;;;;;;0.59;93.80;97778.16;5041028;28;20942;-77
2023/11/09 06:30:51;;;;;;;1.08;1.08;;;;;;;0.58;93.94;97777.28;5041781;28;20067;-79
2023/11/09 06:33:20;;;;;;;1.10;1.10;;;;;;;0.64;93.75;97771.44;5034165;28;21073;-79
2023/11/09 06:35:48;;;;;;;1.05;1.05;;;;;;;0.67;94.08;97768.94;5037038;28;20055;-77
2023/11/09 06:38:19;;;;;;;1.00;1.00;;;;;;;0.75;93.57;97771.16;5036912;28;20053;-77
2023/11/09 06:40:48;;;;;;;1.10;1.10;;;;;;;0.95;93.21;97769.53;5037551;28;20588;-77
2023/11/09 06:43:14;;;;;;;1.05;1.05;;;;;;;0.92;93.22;97760.63;5024047;28;20072;-77
2023/11/09 06:45:40;;;;;;;1.08;1.08;;;;;;;0.93;93.48;97762.41;5034834;28;20449;-79
2023/11/09 06:48:05;;;;;;;0.90;0.90;;;;;;;0.93;93.47;97765.06;5040191;28;20771;-77
2023/11/09 06:50:31;;;;;;;1.05;1.05;;;;;;;0.88;93.10;97767.44;5040070;28;20032;-79
2023/11/09 06:52:58;;;;;;;0.90;0.90;;;;;;;0.92;93.67;97761.53;5043863;28;20032;-79
2023/11/09 06:55:24;;;;;;;1.00;1.00;;;;;;;1.01;93.04;97766.34;5038640;28;20051;-78
2023/11/09 06:57:53;;;;;;;1.08;1.08;;;;;;;1.15;92.66;97762.69;5039764;28;20127;-77
2023/11/09 07:00:22;;;;;;;1.00;1.00;;;;;;;1.07;92.85;97768.38;5034060;28;20064;-77
2023/11/09 07:02:49;;;;;;;0.90;0.90;;;;;;;1.11;92.82;97760.72;5040225;28;20043;-77
2023/11/09 07:05:14;;;;;;;1.08;1.08;;;;;;;1.19;93.15;97764.63;5038282;28;20127;-77
2023/11/09 07:07:40;;;;;;;1.00;1.00;;;;;;;1.30;92.58;97761.66;5039286;28;20511;-77
2023/11/09 07:10:07;;;;;;;1.00;1.00;;;;;;;1.36;92.46;97762.84;5034365;28;20773;-77
2023/11/09 07:12:33;;;;;;;1.10;1.10;;;;;;;1.49;92.26;97764.34;5033875;28;20045;-76
2023/11/09 07:14:59;;;;;;;1.00;1.00;;;;;;;1.59;92.06;97753.44;5036031;28;20040;-78
2023/11/09 07:17:25;;;;;;;1.10;1.10;;;;;;;1.87;91.90;97757.34;5049298;28;20044;-77
2023/11/09 07:19:50;;;;;;;0.90;0.90;;;;;;;2.01;91.16;97759.84;5036564;28;20044;-77
2023/11/09 07:22:16;;;;;;;1.00;1.00;;;;;;;2.12;90.89;97762.97;5034605;28;20029;-77
2023/11/09 07:24:49;;;;;;;1.10;1.10;;;;;;;2.30;90.61;97750.66;5034648;28;20048;-78
2023/11/09 07:27:15;;;;;;;1.08;1.08;;;;;;;2.44;90.14;97760.88;5036574;28;20049;-78
2023/11/09 07:29:40;;;;;;;1.00;1.00;;;;;;;2.73;89.73;97756.88;5036074;28;20098;-77
2023/11/09 07:32:06;;;;;;;1.00;1.00;;;;;;;3.04;89.86;97753.84;5033796;28;20033;-77
2023/11/09 07:34:32;;;;;;;1.00;1.00;;;;;;;3.08;89.31;97756.69;5050970;28;20033;-77
2023/11/09 07:37:01;;;;;;;0.90;0.90;;;;;;;3.25;90.33;97753.84;5043868;28;20857;-77
2023/11/09 07:39:27;;;;;;;0.90;0.90;;;;;;;3.31;89.60;97769.94;5035158;28;20047;-77
2023/11/09 07:42:09;;;;;;;0.93;0.93;;;;;;;3.14;89.43;97776.22;5036223;28;20051;-77
2023/11/09 07:44:34;;;;;;;1.00;1.00;;;;;;;3.20;89.92;97768.56;5036319;28;20033;-76
2023/11/09 07:47:00;;;;;;;1.00;1.00;;;;;;;3.20;89.77;97771.22;5036295;28;20037;-76
2023/11/09 07:49:29;;;;;;;0.90;0.90;;;;;;;3.20;90.63;97787.03;5042679;28;20058;-77
2023/11/09 07:51:54;;;;;;;0.90;0.90;;;;;;;3.38;90.91;97802.72;5034605;28;20138;-76
2023/11/09 07:54:21;;;;;;;0.90;0.90;;;;;;;3.38;89.32;97802.72;5033868;28;20095;-77
2023/11/09 07:56:49;;;;;;;1.00;1.00;;;;;;;3.42;89.56;97815.19;5034338;28;20045;-76
2023/11/09 07:59:15;;;;;;;0.90;0.90;;;;;;;3.47;89.21;97817.19;5036321;28;20052;-76
2023/11/09 08:01:41;;;;;;;0.90;0.90;;;;;;;3.75;87.71;97813.97;5035971;28;20382;-76
2023/11/09 08:04:08;;;;;;;0.90;0.90;;;;;;;4.21;86.43;97822.78;5036844;28;20098;-76
2023/11/09 08:06:34;;;;;;;0.75;0.75;;;;;;;4.26;86.44;97829.16;5037366;28;20141;-76
2023/11/09 08:08:59;;;;;;;0.90;0.90;;;;;;;4.54;86.10;97837.28;5037759;28;20083;-75
2023/11/09 08:11:26;;;;;;;0.80;0.80;;;;;;;5.24;80.69;97824.88;5036428;28;20093;-77
2023/11/09 08:13:52;;;;;;;0.90;0.90;;;;;;;5.69;80.34;97814.97;5035644;28;20128;-77
2023/11/09 08:16:18;;;;;;;0.90;0.90;;;;;;;6.26;77.11;97803.59;5035760;28;20068;-77
2023/11/09 08:18:43;;;;;;;0.73;0.73;;;;;;;6.81;75.21;97795.53;5036094;28;20056;-76
2023/11/09 08:21:09;;;;;;;0.80;0.80;;;;;;;7.02;75.62;97792.59;5035049;28;20490;-76
2023/11/09 08:23:38;;;;;;;0.80;0.80;;;;;;;7.05;75.65;97787.38;5036350;28;20033;-77
2023/11/09 08:26:04;;;;;;;0.80;0.80;;;;;;;7.14;74.05;97787.63;5035266;28;20132;-77
2023/11/09 08:28:33;;;;;;;0.70;0.70;;;;;;;7.50;71.53;97785.91;5041203;28;20075;-75
2023/11/09 08:30:59;;;;;;;0.77;0.77;;;;;;;7.45;71.48;97773.41;5051401;28;20045;-76
2023/11/09 08:33:24;;;;;;;0.70;0.70;;;;;;;7.53;71.07;97773.63;5039461;28;20091;-76
2023/11/09 08:35:53;;;;;;;0.75;0.75;;;;;;;7.51;70.92;97780.63;5034157;28;20112;-75
2023/11/09 08:38:22;;;;;;;0.77;0.77;;;;;;;7.43;71.47;97779.56;5033170;28;20112;-76
2023/11/09 08:40:49;;;;;;;0.70;0.70;;;;;;;7.56;69.51;97778.09;5036603;28;20084;-75
2023/11/09 08:43:15;;;;;;;0.80;0.80;;;;;;;7.44;73.16;97776.03;5033565;28;20485;-76
2023/11/09 08:45:42;;;;;;;0.63;0.63;;;;;;;7.40;71.79;97772.41;5036070;28;20045;-76
2023/11/09 08:48:08;;;;;;;0.70;0.70;;;;;;;7.48;74.27;97769.06;5035717;28;20057;-76
2023/11/09 08:50:38;;;;;;;0.70;0.70;;;;;;;7.52;72.78;97770.91;5033718;28;20040;-75
2023/11/09 08:53:04;;;;;;;0.73;0.73;;;;;;;7.39;73.64;97767.06;5034318;28;20121;-76
2023/11/09 08:55:30;;;;;;;0.70;0.70;;;;;;;7.37;74.05;97768.75;5036018;28;20499;-76
2023/11/09 08:57:58;;;;;;;0.80;0.80;;;;;;;7.59;71.96;97773.75;5034431;28;20116;-76
2023/11/09 09:00:28;;;;;;;0.70;0.70;;;;;;;7.61;71.45;97776.44;5033480;28;20033;-76
2023/11/09 09:02:54;;;;;;;0.70;0.70;;;;;;;7.59;74.75;97779.06;5033699;28;20037;-76
2023/11/09 09:05:26;;;;;;;0.70;0.70;;;;;;;7.58;74.66;97781.69;5034601;28;20083;-75
2023/11/09 09:07:54;;;;;;;0.70;0.70;;;;;;;7.66;73.27;97793.38;5035115;28;20380;-76
2023/11/09 09:10:20;;;;;;;0.70;0.70;;;;;;;7.50;77.31;97791.22;5034587;28;20071;-75
2023/11/09 09:12:48;;;;;;;0.70;0.70;;;;;;;7.35;76.71;97791.72;5032821;28;20036;-76
2023/11/09 09:15:16;;;;;;;0.70;0.70;;;;;;;7.47;75.68;97794.66;5032854;28;20059;-75
2023/11/09 09:17:46;;;;;;;0.73;0.73;;;;;;;7.42;78.36;97796.31;5033846;28;20041;-75
2023/11/09 09:20:15;;;;;;;0.70;0.70;;;;;;;7.41;78.53;97790.09;5030273;28;20200;-76
2023/11/09 09:22:45;;;;;;;0.60;0.60;;;;;;;7.46;79.89;97776.97;5032378;28;20036;-76
2023/11/09 09:25:11;;;;;;;0.70;0.70;;;;;;;7.68;72.19;97781.97;5032791;28;20030;-76
2023/11/09 09:27:48;;;;;;;0.70;0.70;;;;;;;7.66;70.42;97775.69;5035037;28;20194;-76
2023/11/09 09:30:17;;;;;;;0.80;0.80;;;;;;;7.97;68.33;97772.03;5034546;28;21272;-76
2023/11/09 09:32:47;;;;;;;0.70;0.70;;;;;;;8.02;68.39;97780.13;5039802;28;20046;-76
2023/11/09 09:35:13;;;;;;;0.70;0.70;;;;;;;8.01;70.37;97782.75;5049362;28;20033;-76
2023/11/09 09:37:40;;;;;;;0.70;0.70;;;;;;;8.22;66.88;97780.59;5032713;28;20041;-76
2023/11/09 09:40:20;;;;;;;0.80;0.80;;;;;;;8.14;67.96;97783.06;5032255;28;20564;-76
2023/11/09 09:42:49;;;;;;;0.70;0.70;;;;;;;8.06;67.61;97784.66;5048242;28;20120;-77
2023/11/09 09:45:15;;;;;;;0.70;0.70;;;;;;;7.81;70.58;97775.22;5034428;28;20051;-76
2023/11/09 09:47:50;;;;;;;0.70;0.70;;;;;;;7.74;70.31;97782.97;5041407;28;20116;-76
2023/11/09 09:50:22;;;;;;;0.70;0.70;;;;;;;7.68;71.64;97778.41;5033651;28;20099;-76
2023/11/09 09:52:50;;;;;;;0.70;0.70;;;;;;;7.67;71.04;97771.31;5040652;28;20442;-76
2023/11/09 09:55:18;;;;;;;0.80;0.80;;;;;;;7.67;70.74;97766.91;5034747;28;20037;-76
2023/11/09 09:57:44;;;;;;;;;;;;;;;7.69;71.41;97766.94;5036360;28;20055;-76
2023/11/09 10:00:12;;;;;;;0.70;0.70;;;;;;;7.61;72.86;97765.81;5035565;28;19913;-76
2023/11/09 10:02:42;;;;;;;0.70;0.70;;;;;;;7.68;72.03;97770.44;5035166;28;20179;-76
2023/11/09 10:05:12;;;;;;;0.70;0.70;;;;;;;7.71;72.75;97766.13;5034366;28;20051;-76
2023/11/09 10:07:59;;;;;;;0.70;0.70;;;;;;;7.58;75.27;97774.63;5041978;28;20050;-76
2023/11/09 10:10:26;;;;;;;0.80;0.80;;;;;;;7.52;75.79;97770.91;5033669;28;20072;-75
2023/11/09 10:12:55;;;;;;;0.80;0.80;;;;;;;7.98;71.42;97768.53;5032535;28;20116;-75
2023/11/09 10:15:24;;;;;;;0.77;0.77;;;;;;;7.92;76.50;97770.16;5037887;28;20375;-75
2023/11/09 10:17:51;;;;;;;0.70;0.70;;;;;;;8.07;73.68;97761.63;5040677;28;20090;-75
2023/11/09 10:20:17;;;;;;;0.70;0.70;;;;;;;8.25;71.01;97759.41;5033998;28;20036;-75
2023/11/09 10:22:43;;;;;;;0.70;0.70;;;;;;;8.38;72.82;97761.50;5034131;28;20055;-76
2023/11/09 10:25:12;;;;;;;0.77;0.77;;;;;;;8.68;68.95;97750.63;5034591;28;20409;-76
2023/11/09 10:27:38;;;;;;;0.80;0.80;;;;;;;8.79;69.18;97748.19;5049404;28;20045;-76
2023/11/09 10:30:06;;;;;;;0.80;0.80;;;;;;;8.91;67.60;97739.53;5034236;28;20386;-76
2023/11/09 10:32:35;;;;;;;0.70;0.70;;;;;;;9.12;67.76;97728.44;5039781;28;20045;-75
2023/11/09 10:35:03;;;;;;;0.65;0.65;;;;;;;9.07;68.34;97730.13;5037340;28;20037;-76
2023/11/09 10:37:29;;;;;;;0.60;0.60;;;;;;;9.21;67.08;97728.59;5035421;28;20067;-76
2023/11/09 10:39:57;;;;;;;0.70;0.70;;;;;;;9.53;65.61;97713.16;5035541;28;20041;-76
2023/11/09 10:42:24;;;;;;;0.60;0.60;;;;;;;9.61;64.38;97718.63;5038778;28;20048;-75
2023/11/09 10:44:52;;;;;;;0.70;0.70;;;;;;;9.72;64.72;97714.38;5038526;28;20399;-76
2023/11/09 10:47:22;;;;;;;0.60;0.60;;;;;;;9.81;64.92;97705.63;5036821;28;20135;-76
2023/11/09 10:49:52;;;;;;;0.70;0.70;;;;;;;10.01;64.43;97697.09;5037445;28;20045;-76
2023/11/09 10:52:19;;;;;;;0.70;0.70;;;;;;;10.10;64.01;97690.06;5035080;28;20036;-76
2023/11/09 10:54:48;;;;;;;0.70;0.70;;;;;;;10.31;62.42;97689.53;5040221;28;20076;-76
2023/11/09 10:57:15;;;;;;;0.60;0.60;;;;;;;10.36;63.61;97698.50;5037769;28;20632;-76
2023/11/09 10:59:41;;;;;;;0.70;0.70;;;;;;;10.47;62.18;97689.75;5038229;28;20041;-76
2023/11/09 11:02:15;;;;;;;0.60;0.60;;;;;;;10.51;62.99;97683.56;5034998;28;20290;-75
2023/11/09 11:04:49;;;;;;;0.60;0.60;;;;;;;10.74;62.28;97686.53;5044861;28;20048;-75
2023/11/09 11:07:18;;;;;;;0.60;0.60;;;;;;;10.78;61.95;97684.78;5039298;28;20041;-76
2023/11/09 11:09:45;;;;;;;0.60;0.60;;;;;;;10.96;61.92;97676.97;5040952;28;20831;-75
2023/11/09 11:12:15;;;;;;;0.60;0.60;;;;;;;10.95;61.31;97684.97;5036962;28;20131;-76
2023/11/09 11:14:43;;;;;;;0.60;0.60;;;;;;;11.05;61.21;97690.41;5040398;28;20036;-78
2023/11/09 11:17:47;;;;;;;0.60;0.60;;;;;;;11.13;61.33;97697.63;5040808;28;20037;-76
2023/11/09 11:20:31;;;;;;;0.60;0.60;;;;;;;11.19;60.45;97676.31;5036617;28;20053;-75
2023/11/09 11:23:06;;;;;;;0.60;0.60;;;;;;;11.25;61.07;97687.03;5040828;28;20045;-76
2023/11/09 11:25:34;;;;;;;0.60;0.60;;;;;;;11.28;60.54;97676.41;5039349;28;20131;-75
2023/11/09 11:28:02;;;;;;;0.60;0.60;;;;;;;11.57;59.68;97671.31;5038039;28;20033;-75
2023/11/09 11:30:32;;;;;;;0.70;0.70;;;;;;;11.89;58.73;97666.25;5044381;28;20047;-75
2023/11/09 11:33:06;;;;;;;0.60;0.60;;;;;;;12.47;57.06;97649.63;5043849;28;20045;-76
2023/11/09 11:35:40;;;;;;;0.60;0.60;;;;;;;12.76;56.39;97653.31;5024684;28;20040;-75
2023/11/09 11:38:23;;;;;;;0.60;0.60;;;;;;;12.98;55.91;97653.34;5041730;28;20029;-75
2023/11/09 11:41:00;;;;;;;0.65;0.65;;;;;;;12.74;57.16;97640.78;5035417;28;20037;-75
2023/11/09 11:43:34;;;;;;;0.70;0.70;;;;;;;15.22;49.38;97633.22;5035990;28;20054;-76
2023/11/09 11:46:11;;;;;;;0.60;0.60;;;;;;;15.76;47.68;97627.44;5035872;28;20040;-75
2023/11/09 11:48:40;;;;;;;0.40;0.40;;;;;;;14.57;51.34;97632.72;5048670;28;20149;-75
2023/11/09 11:51:07;;;;;;;0.40;0.40;;;;;;;14.09;52.38;97628.38;5039070;28;20045;-76